sensor_id;sensor_type;location;lat;lon;timestamp;P1;durP1;ratioP1;P2;durP2;ratioP2
1164;SDS011;571;50.930;6.926;2023-04-19T02:45:59;8.13;;;7.40;;
1164;SDS011;571;50.930;6.926;2023-04-19T02:48:35;10.33;;;8.17;;
1164;SDS011;571;50.930;6.926;2023-04-19T02:51:05;11.80;;;7.00;;
1164;SDS011;571;50.930;6.926;2023-04-19T02:53:34;7.83;;;7.03;;
1164;SDS011;571;50.930;6.926;2023-04-19T02:56:05;8.40;;;7.23;;
1164;SDS011;571;50.930;6.926;2023-04-19T02:58:36;8.03;;;6.60;;
1164;SDS011;571;50.930;6.926;2023-04-19T03:01:10;8.87;;;7.57;;
1164;SDS011;571;50.930;6.926;2023-04-19T03:03:37;9.20;;;7.57;;
1164;SDS011;571;50.930;6.926;2023-04-19T03:06:04;8.30;;;7.50;;
1164;SDS011;571;50.930;6.926;2023-04-19T03:08:36;10.50;;;9.37;;
1164;SDS011;571;50.930;6.926;2023-04-19T03:11:07;14.60;;;9.90;;
1164;SDS011;571;50.930;6.926;2023-04-19T03:16:28;12.63;;;10.77;;
1164;SDS011;571;50.930;6.926;2023-04-19T03:19:00;13.10;;;11.70;;
1164;SDS011;571;50.930;6.926;2023-04-19T03:21:35;12.27;;;10.97;;
1164;SDS011;571;50.930;6.926;2023-04-19T03:24:05;12.27;;;10.97;;
1164;SDS011;571;50.930;6.926;2023-04-19T03:26:33;11.47;;;10.27;;
1164;SDS011;571;50.930;6.926;2023-04-19T03:29:07;12.27;;;9.90;;
1164;SDS011;571;50.930;6.926;2023-04-19T03:31:49;11.07;;;9.97;;
1164;SDS011;571;50.930;6.926;2023-04-19T03:34:35;9.73;;;8.73;;
1164;SDS011;571;50.930;6.926;2023-04-19T03:37:15;12.20;;;9.00;;
1164;SDS011;571;50.930;6.926;2023-04-19T03:39:42;10.37;;;9.20;;
1164;SDS011;571;50.930;6.926;2023-04-19T03:42:21;11.20;;;10.10;;
1164;SDS011;571;50.930;6.926;2023-04-19T03:44:52;10.73;;;9.63;;
1164;SDS011;571;50.930;6.926;2023-04-19T03:47:20;10.10;;;9.10;;
1164;SDS011;571;50.930;6.926;2023-04-19T03:49:53;11.50;;;10.30;;
1164;SDS011;571;50.930;6.926;2023-04-19T03:52:20;11.33;;;9.07;;
1164;SDS011;571;50.930;6.926;2023-04-19T03:54:47;12.20;;;9.70;;
1164;SDS011;571;50.930;6.926;2023-04-19T03:57:17;11.83;;;9.03;;
1164;SDS011;571;50.930;6.926;2023-04-19T03:59:53;11.27;;;10.17;;
1164;SDS011;571;50.930;6.926;2023-04-19T04:02:27;9.60;;;8.70;;
1164;SDS011;571;50.930;6.926;2023-04-19T04:05:10;10.53;;;9.53;;
1164;SDS011;571;50.930;6.926;2023-04-19T04:07:42;11.40;;;10.30;;
1164;SDS011;571;50.930;6.926;2023-04-19T04:10:13;11.17;;;9.13;;
1164;SDS011;571;50.930;6.926;2023-04-19T04:12:42;9.97;;;8.73;;
1164;SDS011;571;50.930;6.926;2023-04-19T04:15:11;11.27;;;10.07;;
1164;SDS011;571;50.930;6.926;2023-04-19T04:17:42;10.23;;;9.13;;
1164;SDS011;571;50.930;6.926;2023-04-19T04:20:12;10.87;;;9.77;;
1164;SDS011;571;50.930;6.926;2023-04-19T04:22:40;10.67;;;9.57;;
1164;SDS011;571;50.930;6.926;2023-04-19T04:25:10;12.23;;;11.03;;
1164;SDS011;571;50.930;6.926;2023-04-19T04:27:45;10.97;;;9.87;;
1164;SDS011;571;50.930;6.926;2023-04-19T04:30:14;9.90;;;8.97;;
1164;SDS011;571;50.930;6.926;2023-04-19T04:32:54;10.17;;;9.07;;
1164;SDS011;571;50.930;6.926;2023-04-19T04:35:29;11.00;;;9.13;;
1164;SDS011;571;50.930;6.926;2023-04-19T04:39:05;11.53;;;10.20;;
1164;SDS011;571;50.930;6.926;2023-04-19T04:41:17;10.70;;;9.60;;
1164;SDS011;571;50.930;6.926;2023-04-19T04:43:45;14.03;;;9.40;;
1164;SDS011;571;50.930;6.926;2023-04-19T04:46:18;11.17;;;10.00;;
1164;SDS011;571;50.930;6.926;2023-04-19T04:49:05;10.73;;;9.60;;
1164;SDS011;571;50.930;6.926;2023-04-19T04:51:35;12.67;;;10.63;;
1164;SDS011;571;50.930;6.926;2023-04-19T04:54:06;10.30;;;9.40;;
1164;SDS011;571;50.930;6.926;2023-04-19T04:56:35;13.73;;;10.10;;
1164;SDS011;571;50.930;6.926;2023-04-19T04:59:05;10.57;;;9.57;;
1164;SDS011;571;50.930;6.926;2023-04-19T05:01:46;10.77;;;9.67;;
1164;SDS011;571;50.930;6.926;2023-04-19T05:04:19;12.30;;;11.03;;
1164;SDS011;571;50.930;6.926;2023-04-19T05:10:38;11.17;;;9.83;;
1164;SDS011;571;50.930;6.926;2023-04-19T05:16:51;10.73;;;9.20;;
1164;SDS011;571;50.930;6.926;2023-04-19T05:23:15;12.43;;;9.80;;
1164;SDS011;571;50.930;6.926;2023-04-19T05:25:50;11.57;;;10.50;;
1164;SDS011;571;50.930;6.926;2023-04-19T05:28:19;12.80;;;11.47;;
1164;SDS011;571;50.930;6.926;2023-04-19T05:40:19;11.37;;;10.03;;
1164;SDS011;571;50.930;6.926;2023-04-19T05:43:11;9.67;;;8.77;;
1164;SDS011;571;50.930;6.926;2023-04-19T05:45:48;11.83;;;10.00;;
1164;SDS011;571;50.930;6.926;2023-04-19T05:48:32;15.40;;;9.70;;
1164;SDS011;571;50.930;6.926;2023-04-19T05:51:31;14.33;;;10.27;;
1164;SDS011;571;50.930;6.926;2023-04-19T05:54:18;10.40;;;9.40;;
1164;SDS011;571;50.930;6.926;2023-04-19T05:57:22;12.27;;;9.57;;
1164;SDS011;571;50.930;6.926;2023-04-19T06:00:02;11.50;;;10.40;;
1164;SDS011;571;50.930;6.926;2023-04-19T06:02:44;10.77;;;9.67;;
1164;SDS011;571;50.930;6.926;2023-04-19T06:05:28;12.43;;;11.20;;
1164;SDS011;571;50.930;6.926;2023-04-19T06:07:58;12.40;;;11.10;;
1164;SDS011;571;50.930;6.926;2023-04-19T06:10:48;11.00;;;9.80;;
1164;SDS011;571;50.930;6.926;2023-04-19T06:13:49;14.03;;;10.60;;
1164;SDS011;571;50.930;6.926;2023-04-19T06:16:22;12.40;;;11.30;;
1164;SDS011;571;50.930;6.926;2023-04-19T06:19:05;11.83;;;10.63;;
1164;SDS011;571;50.930;6.926;2023-04-19T06:24:45;12.53;;;11.23;;
1164;SDS011;571;50.930;6.926;2023-04-19T06:27:16;14.80;;;11.30;;
1164;SDS011;571;50.930;6.926;2023-04-19T06:33:20;13.10;;;9.47;;
1164;SDS011;571;50.930;6.926;2023-04-19T06:35:49;11.70;;;8.30;;
1164;SDS011;571;50.930;6.926;2023-04-19T06:38:19;10.33;;;9.00;;
1164;SDS011;571;50.930;6.926;2023-04-19T06:40:57;11.43;;;9.80;;
1164;SDS011;571;50.930;6.926;2023-04-19T06:44:00;9.20;;;8.13;;
1164;SDS011;571;50.930;6.926;2023-04-19T06:46:33;9.17;;;8.27;;
1164;SDS011;571;50.930;6.926;2023-04-19T06:49:08;9.57;;;7.80;;
1164;SDS011;571;50.930;6.926;2023-04-19T06:51:41;13.07;;;9.37;;
1164;SDS011;571;50.930;6.926;2023-04-19T06:54:20;10.67;;;7.60;;
1164;SDS011;571;50.930;6.926;2023-04-19T06:57:10;9.20;;;7.40;;
1164;SDS011;571;50.930;6.926;2023-04-19T06:59:40;10.10;;;8.10;;
1164;SDS011;571;50.930;6.926;2023-04-19T07:02:42;8.30;;;7.13;;
1164;SDS011;571;50.930;6.926;2023-04-19T07:05:50;8.93;;;6.73;;
1164;SDS011;571;50.930;6.926;2023-04-19T07:08:50;8.20;;;6.20;;
1164;SDS011;571;50.930;6.926;2023-04-19T07:11:34;7.80;;;7.00;;
1164;SDS011;571;50.930;6.926;2023-04-19T07:14:11;7.70;;;6.40;;
1164;SDS011;571;50.930;6.926;2023-04-19T07:17:19;10.03;;;7.10;;
1164;SDS011;571;50.930;6.926;2023-04-19T07:21:19;7.47;;;6.73;;
1164;SDS011;571;50.930;6.926;2023-04-19T07:23:18;5.87;;;5.37;;
1164;SDS011;571;50.930;6.926;2023-04-19T07:30:01;8.57;;;7.30;;
1164;SDS011;571;50.930;6.926;2023-04-19T07:32:47;7.00;;;6.30;;
1164;SDS011;571;50.930;6.926;2023-04-19T07:35:41;6.43;;;5.83;;
1164;SDS011;571;50.930;6.926;2023-04-19T07:44:50;8.80;;;6.70;;
1164;SDS011;571;50.930;6.926;2023-04-19T07:47:38;11.50;;;6.53;;
1164;SDS011;571;50.930;6.926;2023-04-19T07:50:35;7.43;;;5.57;;
1164;SDS011;571;50.930;6.926;2023-04-19T07:53:09;6.67;;;5.47;;
1164;SDS011;571;50.930;6.926;2023-04-19T07:55:39;10.90;;;7.50;;
1164;SDS011;571;50.930;6.926;2023-04-19T07:58:32;7.60;;;5.97;;
1164;SDS011;571;50.930;6.926;2023-04-19T08:01:05;7.23;;;5.80;;
1164;SDS011;571;50.930;6.926;2023-04-19T08:03:37;8.00;;;6.10;;
1164;SDS011;571;50.930;6.926;2023-04-19T08:09:14;6.77;;;5.30;;
1164;SDS011;571;50.930;6.926;2023-04-19T08:11:47;6.03;;;5.03;;
1164;SDS011;571;50.930;6.926;2023-04-19T08:14:55;4.87;;;4.43;;
1164;SDS011;571;50.930;6.926;2023-04-19T08:17:30;7.90;;;4.90;;
1164;SDS011;571;50.930;6.926;2023-04-19T08:22:50;5.93;;;5.43;;
1164;SDS011;571;50.930;6.926;2023-04-19T08:25:32;6.50;;;5.10;;
1164;SDS011;571;50.930;6.926;2023-04-19T08:28:09;6.50;;;4.87;;
1164;SDS011;571;50.930;6.926;2023-04-19T08:30:45;5.77;;;4.87;;
1164;SDS011;571;50.930;6.926;2023-04-19T08:33:22;5.90;;;5.27;;
1164;SDS011;571;50.930;6.926;2023-04-19T08:35:56;5.13;;;4.63;;
1164;SDS011;571;50.930;6.926;2023-04-19T08:38:41;6.70;;;5.97;;
1164;SDS011;571;50.930;6.926;2023-04-19T08:41:43;5.50;;;5.00;;
1164;SDS011;571;50.930;6.926;2023-04-19T08:44:12;6.83;;;6.07;;
1164;SDS011;571;50.930;6.926;2023-04-19T08:47:00;7.30;;;6.60;;
1164;SDS011;571;50.930;6.926;2023-04-19T08:49:40;6.53;;;5.90;;
1164;SDS011;571;50.930;6.926;2023-04-19T08:52:15;7.20;;;5.80;;
1164;SDS011;571;50.930;6.926;2023-04-19T08:55:00;6.47;;;5.23;;
1164;SDS011;571;50.930;6.926;2023-04-19T08:57:34;5.67;;;4.80;;
1164;SDS011;571;50.930;6.926;2023-04-19T09:00:16;6.63;;;5.17;;
1164;SDS011;571;50.930;6.926;2023-04-19T09:05:49;6.10;;;5.13;;
1164;SDS011;571;50.930;6.926;2023-04-19T09:08:47;6.60;;;5.00;;
1164;SDS011;571;50.930;6.926;2023-04-19T09:11:35;7.50;;;5.37;;
1164;SDS011;571;50.930;6.926;2023-04-19T09:14:17;6.30;;;4.77;;
1164;SDS011;571;50.930;6.926;2023-04-19T09:16:48;8.03;;;5.10;;
1164;SDS011;571;50.930;6.926;2023-04-19T09:19:19;7.70;;;5.73;;
1164;SDS011;571;50.930;6.926;2023-04-19T09:22:11;5.93;;;5.33;;
1164;SDS011;571;50.930;6.926;2023-04-19T09:24:45;5.13;;;4.63;;
1164;SDS011;571;50.930;6.926;2023-04-19T09:27:28;8.23;;;5.43;;
1164;SDS011;571;50.930;6.926;2023-04-19T09:29:56;6.50;;;4.73;;
1164;SDS011;571;50.930;6.926;2023-04-19T09:32:44;5.37;;;4.87;;
1164;SDS011;571;50.930;6.926;2023-04-19T09:35:23;8.07;;;4.43;;
1164;SDS011;571;50.930;6.926;2023-04-19T09:38:16;5.00;;;3.83;;
1164;SDS011;571;50.930;6.926;2023-04-19T09:40:49;4.47;;;4.07;;
1164;SDS011;571;50.930;6.926;2023-04-19T09:43:25;7.20;;;4.83;;
1164;SDS011;571;50.930;6.926;2023-04-19T09:46:16;6.60;;;4.70;;
1164;SDS011;571;50.930;6.926;2023-04-19T09:49:20;5.73;;;4.00;;
1164;SDS011;571;50.930;6.926;2023-04-19T09:55:10;3.77;;;3.37;;
1164;SDS011;571;50.930;6.926;2023-04-19T09:57:52;5.60;;;3.53;;
1164;SDS011;571;50.930;6.926;2023-04-19T10:00:34;4.70;;;3.63;;
1164;SDS011;571;50.930;6.926;2023-04-19T10:03:20;5.60;;;4.20;;
1164;SDS011;571;50.930;6.926;2023-04-19T10:05:59;7.50;;;4.13;;
1164;SDS011;571;50.930;6.926;2023-04-19T10:14:57;8.40;;;4.23;;
1164;SDS011;571;50.930;6.926;2023-04-19T10:17:37;4.00;;;3.50;;
1164;SDS011;571;50.930;6.926;2023-04-19T10:21:45;6.27;;;5.00;;
1164;SDS011;571;50.930;6.926;2023-04-19T10:23:59;4.73;;;4.23;;
1164;SDS011;571;50.930;6.926;2023-04-19T10:30:15;4.90;;;3.63;;
1164;SDS011;571;50.930;6.926;2023-04-19T10:39:49;4.33;;;3.53;;
1164;SDS011;571;50.930;6.926;2023-04-19T10:49:19;5.83;;;3.93;;
1164;SDS011;571;50.930;6.926;2023-04-19T10:52:19;11.63;;;5.63;;
1164;SDS011;571;50.930;6.926;2023-04-19T10:55:14;10.10;;;4.20;;
1164;SDS011;571;50.930;6.926;2023-04-19T10:58:17;3.60;;;3.20;;
1164;SDS011;571;50.930;6.926;2023-04-19T11:08:05;6.20;;;4.20;;
1164;SDS011;571;50.930;6.926;2023-04-19T11:11:42;5.40;;;3.27;;
1164;SDS011;571;50.930;6.926;2023-04-19T11:14:52;3.07;;;2.77;;
1164;SDS011;571;50.930;6.926;2023-04-19T11:17:48;5.73;;;3.40;;
1164;SDS011;571;50.930;6.926;2023-04-19T11:20:48;4.77;;;3.60;;
1164;SDS011;571;50.930;6.926;2023-04-19T11:24:07;7.73;;;3.73;;
1164;SDS011;571;50.930;6.926;2023-04-19T11:26:43;5.20;;;3.50;;
1164;SDS011;571;50.930;6.926;2023-04-19T11:29:13;9.80;;;4.30;;
1164;SDS011;571;50.930;6.926;2023-04-19T11:31:46;3.27;;;2.83;;
1164;SDS011;571;50.930;6.926;2023-04-19T11:34:30;3.80;;;3.10;;
1164;SDS011;571;50.930;6.926;2023-04-19T11:37:07;8.23;;;4.93;;
1164;SDS011;571;50.930;6.926;2023-04-19T11:39:44;9.00;;;4.27;;
1164;SDS011;571;50.930;6.926;2023-04-19T11:42:17;5.63;;;3.30;;
1164;SDS011;571;50.930;6.926;2023-04-19T11:45:10;6.43;;;5.10;;
1164;SDS011;571;50.930;6.926;2023-04-19T11:47:59;5.70;;;3.67;;
1164;SDS011;571;50.930;6.926;2023-04-19T11:50:37;6.20;;;3.33;;
1164;SDS011;571;50.930;6.926;2023-04-19T11:53:18;5.60;;;4.00;;
1164;SDS011;571;50.930;6.926;2023-04-19T11:55:56;4.17;;;3.00;;
1164;SDS011;571;50.930;6.926;2023-04-19T11:58:29;5.03;;;3.60;;
1164;SDS011;571;50.930;6.926;2023-04-19T12:01:03;4.93;;;3.23;;
1164;SDS011;571;50.930;6.926;2023-04-19T12:03:31;6.50;;;3.37;;
1164;SDS011;571;50.930;6.926;2023-04-19T12:05:58;5.80;;;3.20;;
1164;SDS011;571;50.930;6.926;2023-04-19T12:08:31;3.77;;;3.30;;
1164;SDS011;571;50.930;6.926;2023-04-19T12:11:00;5.70;;;2.80;;
1164;SDS011;571;50.930;6.926;2023-04-19T12:13:27;8.57;;;3.37;;
1164;SDS011;571;50.930;6.926;2023-04-19T12:15:55;3.93;;;2.80;;
1164;SDS011;571;50.930;6.926;2023-04-19T12:18:22;3.53;;;2.80;;
1164;SDS011;571;50.930;6.926;2023-04-19T12:20:49;4.20;;;2.40;;
1164;SDS011;571;50.930;6.926;2023-04-19T12:23:17;3.50;;;2.13;;
1164;SDS011;571;50.930;6.926;2023-04-19T12:25:45;4.47;;;2.50;;
1164;SDS011;571;50.930;6.926;2023-04-19T12:28:18;3.73;;;2.20;;
1164;SDS011;571;50.930;6.926;2023-04-19T12:30:45;4.17;;;2.40;;
1164;SDS011;571;50.930;6.926;2023-04-19T12:33:12;4.93;;;2.40;;
1164;SDS011;571;50.930;6.926;2023-04-19T12:42:58;4.83;;;2.87;;
1164;SDS011;571;50.930;6.926;2023-04-19T12:53:13;5.20;;;2.50;;
1164;SDS011;571;50.930;6.926;2023-04-19T12:56:14;6.00;;;2.33;;
1164;SDS011;571;50.930;6.926;2023-04-19T12:59:23;2.83;;;2.30;;
1164;SDS011;571;50.930;6.926;2023-04-19T13:14:01;4.40;;;2.50;;
1164;SDS011;571;50.930;6.926;2023-04-19T13:16:46;3.57;;;2.90;;
1164;SDS011;571;50.930;6.926;2023-04-19T13:23:13;3.93;;;2.83;;
1164;SDS011;571;50.930;6.926;2023-04-19T13:26:24;4.30;;;2.57;;
1164;SDS011;571;50.930;6.926;2023-04-19T13:29:33;6.30;;;2.90;;
1164;SDS011;571;50.930;6.926;2023-04-19T13:32:04;4.63;;;3.50;;
1164;SDS011;571;50.930;6.926;2023-04-19T13:34:43;4.40;;;3.00;;
1164;SDS011;571;50.930;6.926;2023-04-19T13:37:14;5.70;;;3.00;;
1164;SDS011;571;50.930;6.926;2023-04-19T13:40:04;5.80;;;3.03;;
1164;SDS011;571;50.930;6.926;2023-04-19T13:59:48;8.50;;;3.00;;
1164;SDS011;571;50.930;6.926;2023-04-19T14:02:36;4.70;;;3.13;;
1164;SDS011;571;50.930;6.926;2023-04-19T14:05:17;4.17;;;2.70;;
1164;SDS011;571;50.930;6.926;2023-04-19T14:07:55;7.40;;;2.83;;
1164;SDS011;571;50.930;6.926;2023-04-19T14:11:06;3.73;;;2.57;;
1164;SDS011;571;50.930;6.926;2023-04-19T14:20:24;6.13;;;3.23;;
1164;SDS011;571;50.930;6.926;2023-04-19T14:25:45;4.83;;;3.50;;
1164;SDS011;571;50.930;6.926;2023-04-19T14:26:51;3.80;;;3.40;;
1164;SDS011;571;50.930;6.926;2023-04-19T14:49:23;3.03;;;2.80;;
1164;SDS011;571;50.930;6.926;2023-04-19T14:52:16;4.80;;;3.00;;
1164;SDS011;571;50.930;6.926;2023-04-19T14:54:52;6.27;;;3.20;;
1164;SDS011;571;50.930;6.926;2023-04-19T14:58:14;6.77;;;2.70;;
1164;SDS011;571;50.930;6.926;2023-04-19T15:01:08;6.00;;;2.80;;
1164;SDS011;571;50.930;6.926;2023-04-19T15:04:39;4.20;;;3.80;;
1164;SDS011;571;50.930;6.926;2023-04-19T15:07:25;3.00;;;2.70;;
1164;SDS011;571;50.930;6.926;2023-04-19T15:10:15;3.80;;;2.90;;
1164;SDS011;571;50.930;6.926;2023-04-19T15:32:54;6.07;;;3.33;;
1164;SDS011;571;50.930;6.926;2023-04-19T15:38:06;5.53;;;2.90;;
1164;SDS011;571;50.930;6.926;2023-04-19T15:40:41;7.73;;;3.50;;
1164;SDS011;571;50.930;6.926;2023-04-19T15:43:25;3.10;;;2.77;;
1164;SDS011;571;50.930;6.926;2023-04-19T15:46:15;7.90;;;3.30;;
1164;SDS011;571;50.930;6.926;2023-04-19T15:58:35;8.20;;;3.17;;
1164;SDS011;571;50.930;6.926;2023-04-19T16:01:15;4.73;;;3.70;;
1164;SDS011;571;50.930;6.926;2023-04-19T16:07:46;7.70;;;3.33;;
1164;SDS011;571;50.930;6.926;2023-04-19T16:10:44;21.00;;;4.50;;
1164;SDS011;571;50.930;6.926;2023-04-19T16:13:42;6.37;;;4.23;;
1164;SDS011;571;50.930;6.926;2023-04-19T16:16:14;4.10;;;3.80;;
1164;SDS011;571;50.930;6.926;2023-04-19T16:19:06;4.50;;;3.17;;
1164;SDS011;571;50.930;6.926;2023-04-19T16:21:36;5.57;;;4.13;;
1164;SDS011;571;50.930;6.926;2023-04-19T16:31:22;3.73;;;3.23;;
1164;SDS011;571;50.930;6.926;2023-04-19T16:34:02;7.13;;;3.63;;
1164;SDS011;571;50.930;6.926;2023-04-19T16:36:29;5.83;;;3.53;;
1164;SDS011;571;50.930;6.926;2023-04-19T16:38:56;4.90;;;2.93;;
1164;SDS011;571;50.930;6.926;2023-04-19T16:41:23;4.40;;;3.40;;
1164;SDS011;571;50.930;6.926;2023-04-19T16:46:46;7.13;;;3.17;;
1164;SDS011;571;50.930;6.926;2023-04-19T16:49:17;3.67;;;2.67;;
1164;SDS011;571;50.930;6.926;2023-04-19T16:51:50;3.13;;;2.83;;
1164;SDS011;571;50.930;6.926;2023-04-19T16:54:41;3.67;;;2.60;;
1164;SDS011;571;50.930;6.926;2023-04-19T16:57:17;5.00;;;3.80;;
1164;SDS011;571;50.930;6.926;2023-04-19T16:59:51;4.10;;;2.80;;
1164;SDS011;571;50.930;6.926;2023-04-19T17:10:30;4.00;;;2.90;;
1164;SDS011;571;50.930;6.926;2023-04-19T17:15:39;5.70;;;3.00;;
1164;SDS011;571;50.930;6.926;2023-04-19T17:18:46;6.70;;;2.73;;
1164;SDS011;571;50.930;6.926;2023-04-19T17:21:16;8.30;;;2.77;;
1164;SDS011;571;50.930;6.926;2023-04-19T17:23:50;3.40;;;2.97;;
1164;SDS011;571;50.930;6.926;2023-04-19T17:26:32;3.80;;;2.77;;
1164;SDS011;571;50.930;6.926;2023-04-19T17:29:05;10.10;;;3.20;;
1164;SDS011;571;50.930;6.926;2023-04-19T17:31:48;3.33;;;2.40;;
1164;SDS011;571;50.930;6.926;2023-04-19T17:34:32;8.17;;;2.53;;
1164;SDS011;571;50.930;6.926;2023-04-19T17:37:24;4.43;;;2.17;;
1164;SDS011;571;50.930;6.926;2023-04-19T17:40:14;3.50;;;2.53;;
1164;SDS011;571;50.930;6.926;2023-04-19T17:43:09;3.73;;;2.33;;
1164;SDS011;571;50.930;6.926;2023-04-19T17:45:54;6.33;;;2.50;;
1164;SDS011;571;50.930;6.926;2023-04-19T17:55:26;8.17;;;2.50;;
1164;SDS011;571;50.930;6.926;2023-04-19T17:58:11;6.07;;;3.00;;
1164;SDS011;571;50.930;6.926;2023-04-19T18:00:58;6.70;;;2.60;;
